Time;durP1;ratioP1;P1;durP2;ratioP2;P2;SDS_P1;SDS_P2;PMS_P1;PMS_P2;Temp;Humidity;BMP_temperature;BMP_pressure;BME280_temperature;BME280_humidity;BME280_pressure;Samples;Min_cycle;Max_cycle;Signal;HPM_P1;HPM_P2
2023/10/01 00:02:04;;;;;;;;;16.33;14.67;;;;;;;;5041598;28;45434;-79
2023/10/01 00:04:31;;;;;;;;;13.00;12.67;;;;;;;;5024007;28;45343;-79
2023/10/01 00:06:58;;;;;;;;;14.33;12.67;;;;;;;;5042304;28;45352;-80
2023/10/01 00:09:24;;;;;;;;;15.33;14.00;;;;;;;;5024081;28;46945;-79
2023/10/01 00:11:49;;;;;;;;;18.67;13.00;;;;;;;;5041782;28;46040;-79
2023/10/01 00:14:16;;;;;;;;;13.33;12.67;;;;;;;;5023898;28;45395;-79
2023/10/01 00:16:42;;;;;;;;;16.33;13.33;;;;;;;;5041675;28;45270;-79
2023/10/01 00:19:07;;;;;;;;;8.33;8.00;;;;;;;;5041396;28;45427;-79
2023/10/01 00:21:33;;;;;;;;;19.00;16.67;;;;;;;;5041642;28;46317;-79
2023/10/01 00:23:58;;;;;;;;;14.00;14.00;;;;;;;;5042003;28;45214;-80
2023/10/01 00:26:24;;;;;;;;;18.67;16.00;;;;;;;;5023962;28;45228;-79
2023/10/01 00:28:51;;;;;;;;;17.33;16.00;;;;;;;;5037058;28;45293;-79
2023/10/01 00:31:17;;;;;;;;;20.67;17.33;;;;;;;;5020092;28;48579;-79
2023/10/01 00:33:42;;;;;;;;;15.00;13.33;;;;;;;;5021133;28;45357;-79
2023/10/01 00:36:08;;;;;;;;;14.67;14.67;;;;;;;;5021256;28;45397;-79
2023/10/01 00:38:33;;;;;;;;;14.67;13.67;;;;;;;;5021405;28;45499;-80
2023/10/01 00:40:58;;;;;;;;;14.33;13.33;;;;;;;;5020346;28;47050;-79
2023/10/01 00:43:25;;;;;;;;;11.00;11.00;;;;;;;;5030150;28;45324;-79
2023/10/01 00:45:50;;;;;;;;;13.33;12.33;;;;;;;;5023221;28;45517;-79
2023/10/01 00:48:18;;;;;;;;;15.00;14.33;;;;;;;;5040943;28;45455;-79
2023/10/01 00:50:44;;;;;;;;;19.00;16.33;;;;;;;;5023414;28;47351;-79
2023/10/01 00:53:10;;;;;;;;;14.00;13.67;;;;;;;;5041168;28;45352;-79
2023/10/01 00:55:36;;;;;;;;;15.33;14.33;;;;;;;;5023572;28;45493;-79
2023/10/01 00:58:02;;;;;;;;;13.33;13.00;;;;;;;;5039995;28;46052;-79
2023/10/01 01:00:27;;;;;;;;;17.33;15.00;;;;;;;;5041221;28;45371;-79
2023/10/01 01:05:37;;;;;;;;;18.00;16.33;;;;;;;;5041256;28;45384;-79
2023/10/01 01:08:21;;;;;;;;;14.00;12.67;;;;;;;;5041131;28;45357;-79
2023/10/01 01:10:48;;;;;;;;;14.00;14.00;;;;;;;;5022789;28;47070;-79
2023/10/01 01:13:16;;;;;;;;;11.67;11.00;;;;;;;;5022771;28;45373;-79
2023/10/01 01:15:45;;;;;;;;;13.33;13.00;;;;;;;;5041466;28;45305;-79
2023/10/01 01:18:13;;;;;;;;;9.33;6.33;;;;;;;;5041519;28;45320;-78
2023/10/01 01:20:43;;;;;;;;;15.00;13.00;;;;;;;;5041555;28;45372;-79
2023/10/01 01:23:14;;;;;;;;;14.00;13.00;;;;;;;;5042398;28;45189;-80
2023/10/01 01:25:39;;;;;;;;;12.67;11.00;;;;;;;;5041055;28;45313;-80
2023/10/01 01:28:12;;;;;;;;;16.00;14.67;;;;;;;;5040883;28;45527;-80
2023/10/01 01:30:41;;;;;;;;;17.00;16.00;;;;;;;;5003374;28;47308;-80
2023/10/01 01:33:07;;;;;;;;;14.00;13.00;;;;;;;;5019744;28;45304;-80
2023/10/01 01:35:35;;;;;;;;;18.33;16.67;;;;;;;;5020758;28;45176;-80
2023/10/01 01:38:02;;;;;;;;;15.00;12.33;;;;;;;;5019461;28;46100;-80
2023/10/01 01:40:31;;;;;;;;;15.33;13.33;;;;;;;;5019025;28;46687;-81
2023/10/01 01:42:57;;;;;;;;;9.33;9.33;;;;;;;;5020853;28;45218;-80
2023/10/01 01:45:27;;;;;;;;;15.00;13.67;;;;;;;;5020750;28;45238;-80
2023/10/01 01:47:52;;;;;;;;;17.33;13.67;;;;;;;;5020321;28;45348;-80
2023/10/01 01:50:26;;;;;;;;;16.33;15.67;;;;;;;;5020445;28;46145;-80
2023/10/01 01:52:52;;;;;;;;;15.00;13.00;;;;;;;;5020635;28;45463;-80
2023/10/01 01:55:29;;;;;;;;;18.00;16.00;;;;;;;;5019383;28;45495;-80
2023/10/01 02:00:31;;;;;;;;;15.00;14.00;;;;;;;;5019674;28;45468;-80
2023/10/01 02:02:59;;;;;;;;;16.33;16.00;;;;;;;;5020497;28;45206;-80
2023/10/01 02:05:28;;;;;;;;;17.00;15.00;;;;;;;;5020268;28;45415;-80
2023/10/01 02:07:53;;;;;;;;;15.67;14.00;;;;;;;;5019054;28;47044;-80
2023/10/01 02:10:20;;;;;;;;;18.33;16.00;;;;;;;;5020214;28;45471;-80
2023/10/01 02:12:47;;;;;;;;;18.33;14.33;;;;;;;;5020343;28;45308;-80
2023/10/01 02:15:13;;;;;;;;;9.33;8.67;;;;;;;;5020238;28;45262;-81
2023/10/01 02:17:39;;;;;;;;;18.00;16.33;;;;;;;;5019603;28;45400;-81
2023/10/01 02:20:20;;;;;;;;;15.00;14.00;;;;;;;;5018301;28;48123;-80
2023/10/01 02:22:47;;;;;;;;;18.67;14.00;;;;;;;;5029627;28;45296;-80
2023/10/01 02:25:13;;;;;;;;;15.33;12.67;;;;;;;;5039652;28;45312;-80
2023/10/01 02:27:48;;;;;;;;;14.00;13.00;;;;;;;;5039596;28;45444;-80
2023/10/01 02:30:16;;;;;;;;;13.67;13.67;;;;;;;;5023423;28;46031;-80
2023/10/01 02:35:34;;;;;;;;;14.33;13.67;;;;;;;;5019853;28;45448;-80
2023/10/01 02:38:02;;;;;;;;;17.00;16.33;;;;;;;;5019879;28;45388;-80
2023/10/01 02:40:34;;;;;;;;;14.67;14.33;;;;;;;;5019474;28;45433;-80
2023/10/01 02:43:03;;;;;;;;;21.00;19.00;;;;;;;;5018536;28;45233;-80
2023/10/01 02:45:31;;;;;;;;;19.67;18.67;;;;;;;;5018487;28;45331;-80
2023/10/01 02:48:30;;;;;;;;;16.33;16.33;;;;;;;;5019792;28;45388;-80
2023/10/01 02:50:52;;;;;;;;;15.00;15.00;;;;;;;;5015558;28;46045;-80
2023/10/01 02:53:22;;;;;;;;;23.00;19.33;;;;;;;;5018726;28;46338;-80
2023/10/01 02:55:47;;;;;;;;;23.00;20.00;;;;;;;;5020637;28;45269;-80
2023/10/01 02:58:32;;;;;;;;;18.00;18.00;;;;;;;;5019181;28;46057;-79
2023/10/01 03:01:04;;;;;;;;;17.67;14.00;;;;;;;;5018988;28;46531;-79
2023/10/01 03:03:32;;;;;;;;;18.67;18.67;;;;;;;;5018916;28;45277;-80
2023/10/01 03:05:58;;;;;;;;;18.67;17.00;;;;;;;;5019865;28;45359;-80
2023/10/01 03:08:59;;;;;;;;;19.67;15.33;;;;;;;;5018033;28;45933;-80
2023/10/01 03:11:25;;;;;;;;;15.00;13.33;;;;;;;;5018328;28;47617;-80
2023/10/01 03:13:54;;;;;;;;;18.00;17.67;;;;;;;;5019491;28;45284;-79
2023/10/01 03:19:13;;;;;;;;;16.33;14.33;;;;;;;;5019204;28;45380;-80
2023/10/01 03:24:25;;;;;;;;;18.33;17.00;;;;;;;;5019089;28;45388;-80
2023/10/01 03:26:50;;;;;;;;;18.33;15.67;;;;;;;;5019365;28;45222;-80
2023/10/01 03:29:21;;;;;;;;;19.33;17.00;;;;;;;;5027717;28;47214;-80
2023/10/01 03:31:46;;;;;;;;;17.00;16.00;;;;;;;;5021080;28;47416;-80
2023/10/01 03:34:28;;;;;;;;;18.00;16.00;;;;;;;;5042464;28;45483;-80
2023/10/01 03:37:00;;;;;;;;;16.33;14.67;;;;;;;;5042669;28;45283;-80
2023/10/01 03:39:28;;;;;;;;;17.00;13.33;;;;;;;;5042543;28;45762;-80
2023/10/01 03:42:02;;;;;;;;;17.67;15.00;;;;;;;;5024554;28;48521;-80
2023/10/01 03:47:11;;;;;;;;;14.67;14.67;;;;;;;;5042301;28;45335;-80
2023/10/01 03:49:45;;;;;;;;;15.33;15.00;;;;;;;;5042412;28;45431;-80
2023/10/01 03:52:14;;;;;;;;;21.00;19.00;;;;;;;;5040863;28;47871;-79
2023/10/01 03:57:52;;;;;;;;;14.67;14.67;;;;;;;;5019030;28;45378;-80
2023/10/01 04:00:30;;;;;;;;;18.67;14.67;;;;;;;;5042082;28;45318;-80
2023/10/01 04:02:55;;;;;;;;;15.33;14.33;;;;;;;;5037314;28;48192;-80
2023/10/01 04:05:30;;;;;;;;;20.33;17.33;;;;;;;;5021996;28;45408;-80
2023/10/01 04:07:58;;;;;;;;;13.00;13.00;;;;;;;;5021247;28;45430;-80
2023/10/01 04:12:54;;;;;;;;;14.33;13.00;;;;;;;;5022002;28;46183;-80
2023/10/01 04:15:29;;;;;;;;;15.00;14.00;;;;;;;;5022129;28;45302;-80
2023/10/01 04:20:48;;;;;;;;;14.67;14.67;;;;;;;;5021748;28;45391;-80
2023/10/01 04:23:29;;;;;;;;;16.00;13.00;;;;;;;;5003887;28;47385;-80
2023/10/01 04:25:54;;;;;;;;;12.67;11.33;;;;;;;;5022267;28;45314;-79
2023/10/01 04:28:20;;;;;;;;;14.00;11.67;;;;;;;;5021141;28;45314;-80
2023/10/01 04:30:48;;;;;;;;;11.67;11.00;;;;;;;;5023856;28;46128;-79
2023/10/01 04:33:17;;;;;;;;;16.00;15.00;;;;;;;;5042707;28;46519;-79
2023/10/01 04:35:55;;;;;;;;;14.67;12.00;;;;;;;;5041056;28;45715;-79
2023/10/01 04:38:21;;;;;;;;;17.00;15.00;;;;;;;;5024183;28;45473;-80
2023/10/01 04:40:48;;;;;;;;;16.00;15.00;;;;;;;;5041519;28;45285;-80
2023/10/01 04:43:16;;;;;;;;;16.33;13.67;;;;;;;;5041137;28;45236;-80
2023/10/01 04:45:41;;;;;;;;;18.00;16.33;;;;;;;;5041021;28;45434;-79
2023/10/01 04:48:15;;;;;;;;;15.67;14.67;;;;;;;;5023767;28;45392;-79
2023/10/01 04:50:40;;;;;;;;;14.67;12.67;;;;;;;;5040852;28;45750;-80
2023/10/01 04:53:07;;;;;;;;;16.00;14.33;;;;;;;;5023118;28;47097;-80
2023/10/01 04:55:40;;;;;;;;;13.00;13.00;;;;;;;;5040795;28;45419;-80
2023/10/01 04:58:06;;;;;;;;;14.67;14.00;;;;;;;;5029304;28;45398;-79
2023/10/01 05:00:33;;;;;;;;;14.33;14.00;;;;;;;;5040649;28;45401;-80
2023/10/01 05:02:59;;;;;;;;;10.00;7.33;;;;;;;;5014576;28;47208;-79
2023/10/01 05:05:27;;;;;;;;;14.67;12.33;;;;;;;;5039998;28;45323;-80
2023/10/01 05:07:56;;;;;;;;;15.33;11.67;;;;;;;;5039896;28;45249;-80
2023/10/01 05:10:21;;;;;;;;;16.67;15.33;;;;;;;;5023254;28;47100;-80
2023/10/01 05:12:47;;;;;;;;;14.00;13.33;;;;;;;;5039535;28;47349;-80
2023/10/01 05:15:24;;;;;;;;;15.67;14.33;;;;;;;;5023094;28;45397;-80
2023/10/01 05:17:50;;;;;;;;;13.00;13.00;;;;;;;;5041332;28;45299;-80
2023/10/01 05:20:15;;;;;;;;;18.33;15.67;;;;;;;;5040913;28;45148;-79
2023/10/01 05:22:46;;;;;;;;;13.33;11.67;;;;;;;;5041080;28;45528;-80
2023/10/01 05:25:12;;;;;;;;;14.00;14.00;;;;;;;;5040816;28;45453;-79
2023/10/01 05:27:39;;;;;;;;;13.33;11.67;;;;;;;;5022934;28;45317;-80
2023/10/01 05:30:32;;;;;;;;;12.00;11.33;;;;;;;;5007680;28;45829;-80
2023/10/01 05:32:51;;;;;;;;;16.67;14.33;;;;;;;;5035329;28;45955;-79
2023/10/01 05:35:16;;;;;;;;;14.33;11.67;;;;;;;;5020342;28;46301;-79
2023/10/01 05:37:42;;;;;;;;;13.00;13.00;;;;;;;;5037459;28;45237;-79
2023/10/01 05:40:08;;;;;;;;;14.00;12.00;;;;;;;;5022180;28;46059;-79
2023/10/01 05:42:34;;;;;;;;;15.67;11.00;;;;;;;;5039245;28;45431;-79
2023/10/01 05:44:59;;;;;;;;;15.33;13.67;;;;;;;;5040696;28;45266;-80
2023/10/01 05:47:50;;;;;;;;;14.67;14.67;;;;;;;;5040536;28;45186;-80
2023/10/01 05:50:18;;;;;;;;;13.00;11.67;;;;;;;;5040796;28;45274;-81
2023/10/01 05:52:45;;;;;;;;;16.00;14.00;;;;;;;;5041440;28;45202;-81
2023/10/01 05:55:17;;;;;;;;;14.67;12.00;;;;;;;;5040996;28;45411;-82
2023/10/01 05:57:42;;;;;;;;;13.67;11.67;;;;;;;;5040651;28;45289;-79
2023/10/01 06:00:18;;;;;;;;;14.33;12.00;;;;;;;;5022538;28;45860;-78
2023/10/01 06:03:00;;;;;;;;;11.67;11.67;;;;;;;;5022755;28;48145;-79
2023/10/01 06:05:32;;;;;;;;;14.33;14.33;;;;;;;;5040535;28;45161;-80
2023/10/01 06:07:58;;;;;;;;;15.33;12.67;;;;;;;;5040280;28;45421;-78
2023/10/01 06:10:35;;;;;;;;;15.33;13.00;;;;;;;;5040512;28;45317;-79
2023/10/01 06:13:01;;;;;;;;;14.33;12.00;;;;;;;;5018311;28;47424;-78
2023/10/01 06:15:29;;;;;;;;;12.00;11.67;;;;;;;;5035851;28;45138;-77
2023/10/01 06:17:54;;;;;;;;;16.33;15.00;;;;;;;;5021897;28;45276;-78
2023/10/01 06:20:29;;;;;;;;;14.67;14.33;;;;;;;;5022029;28;46117;-80
2023/10/01 06:22:55;;;;;;;;;10.67;10.00;;;;;;;;5020957;28;48227;-79
2023/10/01 06:25:37;;;;;;;;;14.67;14.67;;;;;;;;5039910;28;45436;-78
2023/10/01 06:28:07;;;;;;;;;16.00;14.33;;;;;;;;5020612;28;45469;-79
2023/10/01 06:30:33;;;;;;;;;16.33;13.33;;;;;;;;5037844;28;45735;-78
2023/10/01 06:32:59;;;;;;;;;11.67;11.67;;;;;;;;5020206;28;47274;-78
2023/10/01 06:35:25;;;;;;;;;17.67;15.67;;;;;;;;5020639;28;45491;-79
2023/10/01 06:37:51;;;;;;;;;16.67;14.00;;;;;;;;5038937;28;45236;-79
2023/10/01 06:40:31;;;;;;;;;17.33;15.67;;;;;;;;5038878;28;45281;-79
2023/10/01 06:42:58;;;;;;;;;16.00;15.67;;;;;;;;5036687;28;46524;-80
2023/10/01 06:45:38;;;;;;;;;15.33;14.33;;;;;;;;5035793;28;45339;-80
2023/10/01 06:48:15;;;;;;;;;19.67;17.67;;;;;;;;5037398;28;45522;-80
2023/10/01 06:50:43;;;;;;;;;11.67;11.67;;;;;;;;5035597;28;46992;-80
2023/10/01 06:53:09;;;;;;;;;18.67;15.67;;;;;;;;5019750;28;48199;-81
2023/10/01 06:55:36;;;;;;;;;18.33;13.33;;;;;;;;5038675;28;45356;-80
2023/10/01 06:58:06;;;;;;;;;17.00;15.00;;;;;;;;5035908;28;45245;-78
2023/10/01 07:00:33;;;;;;;;;18.33;15.67;;;;;;;;5018064;28;47194;-79
2023/10/01 07:03:16;;;;;;;;;19.00;18.00;;;;;;;;5015553;28;46280;-78
2023/10/01 07:05:42;;;;;;;;;16.00;15.33;;;;;;;;5034539;28;45383;-78
2023/10/01 07:08:07;;;;;;;;;18.33;17.33;;;;;;;;5040674;28;45399;-78
2023/10/01 07:10:34;;;;;;;;;24.33;22.33;;;;;;;;5043518;28;45367;-78
2023/10/01 07:13:04;;;;;;;;;28.67;27.67;;;;;;;;5043492;28;45497;-78
2023/10/01 07:15:32;;;;;;;;;31.00;29.00;;;;;;;;5041482;28;45587;-80
2023/10/01 07:17:58;;;;;;;;;33.33;30.33;;;;;;;;5033342;28;45276;-78
2023/10/01 07:20:24;;;;;;;;;30.33;29.33;;;;;;;;5041624;28;45315;-78
2023/10/01 07:22:50;;;;;;;;;34.67;30.67;;;;;;;;5043437;28;46816;-79
2023/10/01 07:27:59;;;;;;;;;34.67;31.00;;;;;;;;5043530;28;45443;-78
2023/10/01 07:30:39;;;;;;;;;27.67;26.00;;;;;;;;5042341;28;45298;-80
2023/10/01 07:33:08;;;;;;;;;25.00;22.33;;;;;;;;5043863;28;47053;-80
2023/10/01 07:35:34;;;;;;;;;23.00;21.00;;;;;;;;5043957;28;45349;-81
2023/10/01 07:37:59;;;;;;;;;20.33;19.00;;;;;;;;5028286;28;45392;-80
2023/10/01 07:40:25;;;;;;;;;17.33;17.00;;;;;;;;5045858;28;45419;-80
2023/10/01 07:42:54;;;;;;;;;19.00;17.00;;;;;;;;5027642;28;46265;-81
2023/10/01 07:45:20;;;;;;;;;19.33;18.33;;;;;;;;5045542;28;46534;-81
2023/10/01 07:47:46;;;;;;;;;18.67;17.00;;;;;;;;5045279;28;45420;-80
2023/10/01 07:50:16;;;;;;;;;16.67;16.67;;;;;;;;5045059;28;45343;-80
2023/10/01 07:52:41;;;;;;;;;20.00;17.33;;;;;;;;5027217;28;47490;-80
2023/10/01 07:57:51;;;;;;;;;18.00;16.33;;;;;;;;5045263;28;45238;-79
2023/10/01 08:00:35;;;;;;;;;17.00;17.00;;;;;;;;5044533;28;45387;-79
2023/10/01 08:05:47;;;;;;;;;19.00;18.00;;;;;;;;5033434;28;45891;-79
2023/10/01 08:08:13;;;;;;;;;14.33;14.33;;;;;;;;5017868;28;45749;-80
2023/10/01 08:10:39;;;;;;;;;16.33;14.00;;;;;;;;5037686;28;45526;-79
2023/10/01 08:13:07;;;;;;;;;22.67;18.00;;;;;;;;5043424;28;46200;-78
2023/10/01 08:15:39;;;;;;;;;14.00;14.00;;;;;;;;5043245;28;45433;-78
2023/10/01 08:20:59;;;;;;;;;13.33;11.67;;;;;;;;5039579;28;45448;-79
2023/10/01 08:23:25;;;;;;;;;10.33;9.67;;;;;;;;5040659;28;45308;-79
2023/10/01 08:25:55;;;;;;;;;14.67;13.00;;;;;;;;5060077;28;45332;-78
2023/10/01 08:30:49;;;;;;;;;10.67;10.00;;;;;;;;5038507;28;45198;-79
2023/10/01 08:33:32;;;;;;;;;9.00;8.67;;;;;;;;5037682;28;46102;-77
2023/10/01 08:36:01;;;;;;;;;7.00;5.67;;;;;;;;5040914;28;45392;-80
2023/10/01 08:38:34;;;;;;;;;10.67;10.67;;;;;;;;5034661;28;45486;-81
2023/10/01 08:41:02;;;;;;;;;14.67;12.33;;;;;;;;5036257;28;45300;-78
2023/10/01 08:43:36;;;;;;;;;16.00;15.67;;;;;;;;5044468;28;45388;-78
2023/10/01 08:46:13;;;;;;;;;13.67;11.33;;;;;;;;5059446;28;45529;-78
2023/10/01 08:48:39;;;;;;;;;12.00;10.00;;;;;;;;5059729;28;45323;-78
2023/10/01 08:51:11;;;;;;;;;13.00;12.00;;;;;;;;5058806;28;47311;-78
2023/10/01 08:53:41;;;;;;;;;10.67;10.67;;;;;;;;5059695;28;46108;-78
2023/10/01 08:56:06;;;;;;;;;15.33;13.33;;;;;;;;5036669;28;45691;-78
2023/10/01 08:58:48;;;;;;;;;10.67;10.00;;;;;;;;5059711;28;45382;-77
2023/10/01 09:01:14;;;;;;;;;11.00;11.00;;;;;;;;5036906;28;45536;-79
2023/10/01 09:03:47;;;;;;;;;12.33;11.00;;;;;;;;5009226;28;48052;-79
2023/10/01 09:06:33;;;;;;;;;12.67;12.00;;;;;;;;5025800;28;45415;-81
2023/10/01 09:09:19;;;;;;;;;9.00;8.33;;;;;;;;5022055;28;45281;-79
2023/10/01 09:11:49;;;;;;;;;15.33;14.00;;;;;;;;5019299;28;46619;-75
2023/10/01 09:14:18;;;;;;;;;8.33;8.33;;;;;;;;5039578;28;46220;-79
2023/10/01 09:16:44;;;;;;;;;9.67;9.67;;;;;;;;5021696;28;45513;-79
2023/10/01 09:21:55;;;;;;;;;10.33;10.33;;;;;;;;5038529;28;45410;-80
2023/10/01 09:24:39;;;;;;;;;13.67;9.00;;;;;;;;5039245;28;45347;-79
2023/10/01 09:29:57;;;;;;;;;9.33;9.00;;;;;;;;5033434;28;45352;-79
2023/10/01 09:35:42;;;;;;;;;11.33;9.33;;;;;;;;5011145;28;46652;-78
2023/10/01 09:38:12;;;;;;;;;9.67;9.67;;;;;;;;5034104;28;45332;-80
2023/10/01 09:40:42;;;;;;;;;12.67;8.67;;;;;;;;5033909;28;45434;-80
2023/10/01 09:43:18;;;;;;;;;11.67;11.00;;;;;;;;5014909;28;46529;-78
2023/10/01 09:45:46;;;;;;;;;12.67;12.00;;;;;;;;5025035;28;46133;-78
2023/10/01 09:48:28;;;;;;;;;10.67;9.33;;;;;;;;5013123;28;45425;-79
2023/10/01 09:50:55;;;;;;;;;12.00;9.33;;;;;;;;5036460;28;45452;-79
2023/10/01 09:53:24;;;;;;;;;10.00;8.67;;;;;;;;5019865;28;45546;-78
2023/10/01 09:55:55;;;;;;;;;11.67;10.33;;;;;;;;5021065;28;46143;-79
2023/10/01 09:58:24;;;;;;;;;13.33;11.33;;;;;;;;5019606;28;45363;-77
2023/10/01 10:00:54;;;;;;;;;13.00;11.33;;;;;;;;5036402;28;45351;-77
2023/10/01 10:03:19;;;;;;;;;12.67;9.33;;;;;;;;5038794;28;45352;-77
2023/10/01 10:05:46;;;;;;;;;11.67;10.67;;;;;;;;5021706;28;47393;-78
2023/10/01 10:08:15;;;;;;;;;11.00;9.67;;;;;;;;5038180;28;45760;-79
2023/10/01 10:10:52;;;;;;;;;9.00;7.67;;;;;;;;5038984;28;45444;-80
2023/10/01 10:13:36;;;;;;;;;14.00;11.00;;;;;;;;5037942;28;45529;-79
2023/10/01 10:16:28;;;;;;;;;11.67;9.00;;;;;;;;5038733;28;45360;-80
2023/10/01 10:19:04;;;;;;;;;14.00;12.00;;;;;;;;5038323;28;45441;-80
2023/10/01 10:21:36;;;;;;;;;12.33;10.67;;;;;;;;5036777;28;45412;-79
2023/10/01 10:24:02;;;;;;;;;10.33;9.33;;;;;;;;5038349;28;45367;-80
2023/10/01 10:26:56;;;;;;;;;11.67;11.33;;;;;;;;5037613;28;47467;-79
2023/10/01 10:29:22;;;;;;;;;9.33;8.67;;;;;;;;5039260;28;45476;-78
2023/10/01 10:32:01;;;;;;;;;14.33;10.33;;;;;;;;5039808;28;45402;-79
2023/10/01 10:34:29;;;;;;;;;12.67;10.00;;;;;;;;5038513;28;46470;-79
2023/10/01 10:36:55;;;;;;;;;11.75;10.00;;;;;;;;5039588;28;45332;-79
2023/10/01 10:39:40;;;;;;;;;10.00;8.33;;;;;;;;5039879;28;45287;-79
2023/10/01 10:42:28;;;;;;;;;14.67;12.00;;;;;;;;5038901;28;45218;-80
2023/10/01 10:45:21;;;;;;;;;8.67;8.67;;;;;;;;5038032;28;46470;-79
2023/10/01 10:48:02;;;;;;;;;10.33;10.33;;;;;;;;5039446;28;45506;-80
2023/10/01 10:50:46;;;;;;;;;9.25;9.25;;;;;;;;5039536;28;45352;-79
2023/10/01 10:53:20;;;;;;;;;13.00;10.67;;;;;;;;5041530;28;45151;-79
2023/10/01 10:56:04;;;;;;;;;14.67;13.00;;;;;;;;5033587;28;45526;-78
2023/10/01 10:58:31;;;;;;;;;11.33;10.67;;;;;;;;5018518;28;48288;-79
2023/10/01 11:01:15;;;;;;;;;10.33;10.00;;;;;;;;5037561;28;45431;-79
2023/10/01 11:03:40;;;;;;;;;12.67;11.33;;;;;;;;5043005;28;45412;-78
2023/10/01 11:06:21;;;;;;;;;13.00;13.00;;;;;;;;5037853;28;45560;-79
2023/10/01 11:08:50;;;;;;;;;12.33;11.67;;;;;;;;5036964;28;47078;-79
2023/10/01 11:11:27;;;;;;;;;11.00;9.67;;;;;;;;5037945;28;45381;-78
2023/10/01 11:14:02;;;;;;;;;14.67;11.67;;;;;;;;5040895;28;45423;-79
2023/10/01 11:16:36;;;;;;;;;14.00;11.67;;;;;;;;5035889;28;45441;-78
2023/10/01 11:19:14;;;;;;;;;15.33;14.00;;;;;;;;5038809;28;45360;-79
2023/10/01 11:21:59;;;;;;;;;16.00;13.67;;;;;;;;5017879;28;45413;-79
2023/10/01 11:24:25;;;;;;;;;12.00;11.00;;;;;;;;5036329;28;45629;-79
2023/10/01 11:27:11;;;;;;;;;14.33;13.67;;;;;;;;5022302;28;46141;-79
2023/10/01 11:29:38;;;;;;;;;18.00;16.33;;;;;;;;5034270;28;45373;-80
2023/10/01 11:32:04;;;;;;;;;12.67;12.33;;;;;;;;5036970;28;45490;-80
2023/10/01 11:34:43;;;;;;;;;13.33;11.00;;;;;;;;5037108;28;45441;-79
2023/10/01 11:37:18;;;;;;;;;10.67;9.33;;;;;;;;5032633;28;47214;-79
2023/10/01 11:39:49;;;;;;;;;12.33;10.67;;;;;;;;5036198;28;45535;-78
2023/10/01 11:42:35;;;;;;;;;14.33;12.00;;;;;;;;5036057;28;45504;-80
2023/10/01 11:45:01;;;;;;;;;9.67;9.00;;;;;;;;5017422;28;45427;-79
2023/10/01 11:47:33;;;;;;;;;14.00;12.67;;;;;;;;5019863;28;47042;-79
2023/10/01 11:50:07;;;;;;;;;13.00;12.00;;;;;;;;5019168;28;48738;-78
2023/10/01 11:52:32;;;;;;;;;10.25;10.00;;;;;;;;5036955;28;45352;-79
2023/10/01 11:54:57;;;;;;;;;11.25;9.00;;;;;;;;5041344;28;45387;-80
2023/10/01 11:57:24;;;;;;;;;13.00;12.33;;;;;;;;5022252;28;46368;-79
2023/10/01 11:59:55;;;;;;;;;12.00;9.75;;;;;;;;5022896;28;47373;-80
2023/10/01 12:02:25;;;;;;;;;13.33;13.00;;;;;;;;5037961;28;45673;-79
2023/10/01 12:04:59;;;;;;;;;12.00;11.00;;;;;;;;5040870;28;45498;-79
2023/10/01 12:07:32;;;;;;;;;12.00;10.00;;;;;;;;5040231;28;45905;-80
2023/10/01 12:09:58;;;;;;;;;10.67;9.00;;;;;;;;5040606;28;46046;-78
2023/10/01 12:12:27;;;;;;;;;11.33;11.33;;;;;;;;5021904;28;45285;-78
2023/10/01 12:14:53;;;;;;;;;11.00;9.67;;;;;;;;5023805;28;45511;-79
2023/10/01 12:17:23;;;;;;;;;11.67;11.67;;;;;;;;5038860;28;46225;-79
2023/10/01 12:19:50;;;;;;;;;8.25;8.00;;;;;;;;5036976;28;45348;-78
2023/10/01 12:22:16;;;;;;;;;11.00;11.00;;;;;;;;5027361;28;45404;-78
2023/10/01 12:24:44;;;;;;;;;13.33;12.00;;;;;;;;5039507;28;45285;-78
2023/10/01 12:27:11;;;;;;;;;15.67;15.00;;;;;;;;5032673;28;46619;-79
2023/10/01 12:29:48;;;;;;;;;13.33;11.67;;;;;;;;5030973;28;48401;-79
2023/10/01 12:32:14;;;;;;;;;14.00;13.25;;;;;;;;5061135;28;45482;-80
2023/10/01 12:34:39;;;;;;;;;13.00;12.00;;;;;;;;5045149;28;45432;-79
2023/10/01 12:37:32;;;;;;;;;38.00;32.33;;;;;;;;5044181;28;45481;-78
2023/10/01 12:39:50;;;;;;;;;49.67;40.33;;;;;;;;5043747;28;45506;-78
2023/10/01 12:42:16;;;;;;;;;24.67;23.33;;;;;;;;5011663;28;45471;-77
2023/10/01 12:44:43;;;;;;;;;18.00;18.00;;;;;;;;5047283;28;45577;-78
2023/10/01 12:47:11;;;;;;;;;16.00;15.00;;;;;;;;5040045;28;45357;-79
2023/10/01 12:49:36;;;;;;;;;14.67;14.33;;;;;;;;5013986;28;47592;-77
2023/10/01 12:52:02;;;;;;;;;14.00;13.33;;;;;;;;5023730;28;45588;-78
2023/10/01 12:54:28;;;;;;;;;12.00;10.67;;;;;;;;5025168;28;45364;-78
2023/10/01 12:57:03;;;;;;;;;10.50;9.25;;;;;;;;5029612;28;45905;-78
2023/10/01 12:59:41;;;;;;;;;14.00;13.33;;;;;;;;5050958;28;46232;-78
2023/10/01 13:02:22;;;;;;;;;15.00;13.00;;;;;;;;5033381;28;45454;-79
2023/10/01 13:05:16;;;;;;;;;12.33;12.33;;;;;;;;5026444;28;45313;-77
2023/10/01 13:07:37;;;;;;;;;13.00;12.00;;;;;;;;5046170;28;45325;-78
2023/10/01 13:10:06;;;;;;;;;11.33;10.67;;;;;;;;5044780;28;45651;-79
2023/10/01 13:12:38;;;;;;;;;9.33;8.67;;;;;;;;5027519;28;45512;-80
2023/10/01 13:15:16;;;;;;;;;10.67;10.67;;;;;;;;5023955;28;45428;-80
2023/10/01 13:17:45;;;;;;;;;10.25;9.75;;;;;;;;5040811;28;45738;-80
2023/10/01 13:20:25;;;;;;;;;11.75;11.25;;;;;;;;5042292;28;45328;-79
2023/10/01 13:22:52;;;;;;;;;9.50;9.50;;;;;;;;5024501;28;45472;-79
2023/10/01 13:25:23;;;;;;;;;11.75;11.25;;;;;;;;5026673;28;45467;-80
2023/10/01 13:27:50;;;;;;;;;12.50;12.25;;;;;;;;5041017;28;45396;-80
2023/10/01 13:30:23;;;;;;;;;12.25;10.25;;;;;;;;5044660;28;45297;-81
2023/10/01 13:35:36;;;;;;;;;10.25;9.50;;;;;;;;5041868;28;45297;-80
2023/10/01 14:11:03;;;;;;;;;17.25;15.25;;;;;;;;5033660;28;45438;-80
2023/10/01 14:13:35;;;;;;;;;13.25;12.25;;;;;;;;5033523;28;45895;-79
2023/10/01 14:16:17;;;;;;;;;12.00;11.25;;;;;;;;5035685;28;45226;-79
2023/10/01 14:18:53;;;;;;;;;12.75;12.50;;;;;;;;5021848;28;45340;-79
2023/10/01 14:21:21;;;;;;;;;10.50;10.50;;;;;;;;5037807;28;45825;-79
2023/10/01 14:23:46;;;;;;;;;11.00;11.00;;;;;;;;5041618;28;46374;-80
2023/10/01 14:26:13;;;;;;;;;12.25;11.75;;;;;;;;5043482;28;45284;-80
2023/10/01 14:28:39;;;;;;;;;11.25;10.50;;;;;;;;5034792;28;45752;-80
2023/10/01 14:31:11;;;;;;;;;12.00;11.50;;;;;;;;5040124;28;45412;-80
2023/10/01 14:33:39;;;;;;;;;13.00;11.25;;;;;;;;5012698;28;45927;-80
2023/10/01 14:36:11;;;;;;;;;9.00;8.00;;;;;;;;5039184;28;45318;-80
2023/10/01 14:38:42;;;;;;;;;11.67;11.67;;;;;;;;5030359;28;45456;-80
2023/10/01 14:41:15;;;;;;;;;14.00;11.00;;;;;;;;5035742;28;45465;-81
2023/10/01 14:43:48;;;;;;;;;14.33;11.33;;;;;;;;5031177;28;46303;-80
2023/10/01 14:46:13;;;;;;;;;11.00;11.00;;;;;;;;5038324;28;45386;-80
2023/10/01 14:48:39;;;;;;;;;12.00;11.67;;;;;;;;5038716;28;45407;-80
2023/10/01 14:51:05;;;;;;;;;10.67;10.67;;;;;;;;5038889;28;45336;-80
2023/10/01 14:53:36;;;;;;;;;12.00;11.67;;;;;;;;5021623;28;48421;-80
2023/10/01 14:56:04;;;;;;;;;10.00;10.00;;;;;;;;5020797;28;45471;-80
2023/10/01 14:58:30;;;;;;;;;11.33;11.33;;;;;;;;5039331;28;45328;-79
2023/10/01 15:00:57;;;;;;;;;11.00;10.67;;;;;;;;5020299;28;46577;-79
2023/10/01 15:03:23;;;;;;;;;13.33;13.33;;;;;;;;5035611;28;46662;-79
2023/10/01 15:05:51;;;;;;;;;14.33;13.00;;;;;;;;5029888;28;45425;-78
2023/10/01 15:08:17;;;;;;;;;11.25;10.75;;;;;;;;5039005;28;45490;-78
2023/10/01 15:10:49;;;;;;;;;11.67;9.67;;;;;;;;5020630;28;46470;-78
2023/10/01 15:13:15;;;;;;;;;11.75;11.50;;;;;;;;5018643;28;47383;-79
2023/10/01 15:15:44;;;;;;;;;12.33;12.33;;;;;;;;5038515;28;45346;-80
2023/10/01 15:18:17;;;;;;;;;11.25;11.25;;;;;;;;5039440;28;45397;-79
2023/10/01 15:20:53;;;;;;;;;13.25;12.00;;;;;;;;5040340;28;45463;-80
2023/10/01 15:23:18;;;;;;;;;13.67;12.00;;;;;;;;5035417;28;45364;-80
2023/10/01 15:25:44;;;;;;;;;12.00;11.25;;;;;;;;5020404;28;45399;-79
2023/10/01 15:28:09;;;;;;;;;11.00;11.00;;;;;;;;5038506;28;45413;-79
2023/10/01 15:30:38;;;;;;;;;12.50;12.50;;;;;;;;5043126;28;45565;-79
2023/10/01 15:33:10;;;;;;;;;11.75;11.50;;;;;;;;5037830;28;46168;-79
2023/10/01 15:35:43;;;;;;;;;12.67;10.67;;;;;;;;5027132;28;46071;-79
2023/10/01 15:38:08;;;;;;;;;10.00;9.50;;;;;;;;5037836;28;45376;-79
2023/10/01 15:40:33;;;;;;;;;10.00;10.00;;;;;;;;5044222;28;45620;-80
2023/10/01 15:42:59;;;;;;;;;11.00;11.00;;;;;;;;5036966;28;46053;-79
2023/10/01 15:45:25;;;;;;;;;11.00;11.00;;;;;;;;5020377;28;46098;-80
2023/10/01 15:47:54;;;;;;;;;11.50;10.75;;;;;;;;5040175;28;46000;-79
2023/10/01 15:50:23;;;;;;;;;12.00;10.25;;;;;;;;5031425;28;45449;-80
2023/10/01 15:52:49;;;;;;;;;11.00;10.50;;;;;;;;5036107;28;45408;-79
2023/10/01 15:55:18;;;;;;;;;10.00;9.25;;;;;;;;5033806;28;45436;-79
2023/10/01 15:57:44;;;;;;;;;13.33;11.67;;;;;;;;5012240;28;45305;-79
2023/10/01 16:00:29;;;;;;;;;9.25;9.25;;;;;;;;5024312;28;45844;-79